Terminal Aerodrome Forecast
Issued by NWS Quad Cities IA IL

Home | Current Version | Previous Version | Text Only | Print | Product List | Glossary On
Versions: 1 2 3 4 5 6 7 8 9 10 11 12 13 14 15 16 17 18 19 20 21 22 23 24 25 26 27 28 29 30 31 32
000
FTUS43 KDVN 020400 AAA
TAFDBQ
TAF AMD
KDBQ 020457Z 0205/0224 24006KT P6SM SKC
     FM020700 31007KT P6SM SKC
     FM021600 VRB03KT P6SM BKN200
     FM022200 16008KT P6SM BKN080=

USA.gov is the U.S. government's official web portal to all federal, state and local government web resources and services.